sensor_id;sensor_type;location;lat;lon;timestamp;P1;durP1;ratioP1;P2;durP2;ratioP2
15454;SDS011;21057;51.024;7.540;2023-11-22T00:00:28;32.97;;;30.50;;
15454;SDS011;21057;51.024;7.540;2023-11-22T00:02:55;31.97;;;29.67;;
15454;SDS011;21057;51.024;7.540;2023-11-22T00:05:22;30.40;;;28.40;;
15454;SDS011;21057;51.024;7.540;2023-11-22T00:07:49;34.00;;;31.03;;
15454;SDS011;21057;51.024;7.540;2023-11-22T00:10:16;32.70;;;30.33;;
15454;SDS011;21057;51.024;7.540;2023-11-22T00:12:43;32.23;;;30.03;;
15454;SDS011;21057;51.024;7.540;2023-11-22T00:15:10;32.27;;;29.87;;
15454;SDS011;21057;51.024;7.540;2023-11-22T00:17:38;33.27;;;30.80;;
15454;SDS011;21057;51.024;7.540;2023-11-22T00:20:05;32.80;;;30.27;;
15454;SDS011;21057;51.024;7.540;2023-11-22T00:22:33;33.03;;;30.53;;
15454;SDS011;21057;51.024;7.540;2023-11-22T00:25:00;34.50;;;32.00;;
15454;SDS011;21057;51.024;7.540;2023-11-22T00:27:27;32.37;;;29.87;;
15454;SDS011;21057;51.024;7.540;2023-11-22T00:29:54;29.67;;;27.77;;
15454;SDS011;21057;51.024;7.540;2023-11-22T00:32:21;31.03;;;28.93;;
15454;SDS011;21057;51.024;7.540;2023-11-22T00:34:50;33.60;;;31.10;;
15454;SDS011;21057;51.024;7.540;2023-11-22T00:37:16;34.10;;;31.80;;
15454;SDS011;21057;51.024;7.540;2023-11-22T00:39:44;31.83;;;29.77;;
15454;SDS011;21057;51.024;7.540;2023-11-22T00:42:11;31.30;;;29.30;;
15454;SDS011;21057;51.024;7.540;2023-11-22T00:44:37;33.50;;;31.20;;
15454;SDS011;21057;51.024;7.540;2023-11-22T00:47:04;32.03;;;29.87;;
15454;SDS011;21057;51.024;7.540;2023-11-22T00:49:31;29.83;;;27.83;;
15454;SDS011;21057;51.024;7.540;2023-11-22T00:51:59;32.10;;;29.70;;
15454;SDS011;21057;51.024;7.540;2023-11-22T00:54:27;30.97;;;28.33;;
15454;SDS011;21057;51.024;7.540;2023-11-22T00:56:54;32.63;;;30.53;;
15454;SDS011;21057;51.024;7.540;2023-11-22T00:59:21;32.23;;;29.60;;
15454;SDS011;21057;51.024;7.540;2023-11-22T01:01:48;33.17;;;30.50;;
15454;SDS011;21057;51.024;7.540;2023-11-22T01:04:14;31.07;;;28.87;;
15454;SDS011;21057;51.024;7.540;2023-11-22T01:06:41;31.40;;;29.00;;
15454;SDS011;21057;51.024;7.540;2023-11-22T01:09:09;30.30;;;28.13;;
15454;SDS011;21057;51.024;7.540;2023-11-22T01:11:38;30.50;;;28.40;;
15454;SDS011;21057;51.024;7.540;2023-11-22T01:14:05;30.73;;;28.70;;
15454;SDS011;21057;51.024;7.540;2023-11-22T01:16:32;31.97;;;29.87;;
15454;SDS011;21057;51.024;7.540;2023-11-22T01:18:59;31.57;;;29.17;;
15454;SDS011;21057;51.024;7.540;2023-11-22T01:21:26;30.77;;;28.67;;
15454;SDS011;21057;51.024;7.540;2023-11-22T01:23:52;30.33;;;28.03;;
15454;SDS011;21057;51.024;7.540;2023-11-22T01:26:21;29.77;;;27.77;;
15454;SDS011;21057;51.024;7.540;2023-11-22T01:28:48;29.13;;;27.23;;
15454;SDS011;21057;51.024;7.540;2023-11-22T01:31:15;29.67;;;27.60;;
15454;SDS011;21057;51.024;7.540;2023-11-22T01:33:45;30.90;;;28.77;;
15454;SDS011;21057;51.024;7.540;2023-11-22T01:36:13;29.13;;;26.77;;
15454;SDS011;21057;51.024;7.540;2023-11-22T01:38:41;30.23;;;28.10;;
15454;SDS011;21057;51.024;7.540;2023-11-22T01:41:09;29.40;;;27.20;;
15454;SDS011;21057;51.024;7.540;2023-11-22T01:43:39;29.07;;;27.07;;
15454;SDS011;21057;51.024;7.540;2023-11-22T01:46:06;32.43;;;30.07;;
15454;SDS011;21057;51.024;7.540;2023-11-22T01:48:34;31.73;;;29.23;;
15454;SDS011;21057;51.024;7.540;2023-11-22T01:51:02;31.83;;;29.63;;
15454;SDS011;21057;51.024;7.540;2023-11-22T01:53:29;29.43;;;27.27;;
15454;SDS011;21057;51.024;7.540;2023-11-22T01:55:56;31.67;;;28.97;;
15454;SDS011;21057;51.024;7.540;2023-11-22T01:58:23;30.67;;;28.27;;
15454;SDS011;21057;51.024;7.540;2023-11-22T02:00:52;30.67;;;28.50;;
15454;SDS011;21057;51.024;7.540;2023-11-22T02:03:18;30.63;;;28.50;;
15454;SDS011;21057;51.024;7.540;2023-11-22T02:05:46;31.97;;;29.53;;
15454;SDS011;21057;51.024;7.540;2023-11-22T02:08:13;31.20;;;29.17;;
15454;SDS011;21057;51.024;7.540;2023-11-22T02:10:40;30.50;;;28.20;;
15454;SDS011;21057;51.024;7.540;2023-11-22T02:13:07;32.40;;;29.43;;
15454;SDS011;21057;51.024;7.540;2023-11-22T02:15:35;32.67;;;30.30;;
15454;SDS011;21057;51.024;7.540;2023-11-22T02:18:04;30.10;;;28.00;;
15454;SDS011;21057;51.024;7.540;2023-11-22T02:20:32;30.90;;;28.90;;
15454;SDS011;21057;51.024;7.540;2023-11-22T02:23:03;29.67;;;27.43;;
15454;SDS011;21057;51.024;7.540;2023-11-22T02:25:34;29.70;;;27.63;;
15454;SDS011;21057;51.024;7.540;2023-11-22T02:28:01;31.33;;;29.10;;
15454;SDS011;21057;51.024;7.540;2023-11-22T02:30:28;30.10;;;27.90;;
15454;SDS011;21057;51.024;7.540;2023-11-22T02:32:55;32.03;;;29.43;;
15454;SDS011;21057;51.024;7.540;2023-11-22T02:35:22;28.00;;;26.00;;
15454;SDS011;21057;51.024;7.540;2023-11-22T02:37:49;29.63;;;27.50;;
15454;SDS011;21057;51.024;7.540;2023-11-22T02:40:17;30.03;;;27.83;;
15454;SDS011;21057;51.024;7.540;2023-11-22T02:42:45;31.37;;;29.10;;
15454;SDS011;21057;51.024;7.540;2023-11-22T02:45:13;30.80;;;28.60;;
15454;SDS011;21057;51.024;7.540;2023-11-22T02:47:40;31.60;;;29.13;;
15454;SDS011;21057;51.024;7.540;2023-11-22T02:50:11;30.23;;;28.20;;
15454;SDS011;21057;51.024;7.540;2023-11-22T02:52:38;29.80;;;27.67;;
15454;SDS011;21057;51.024;7.540;2023-11-22T02:55:05;29.67;;;27.63;;
15454;SDS011;21057;51.024;7.540;2023-11-22T02:57:36;29.67;;;27.77;;
15454;SDS011;21057;51.024;7.540;2023-11-22T03:00:05;28.57;;;26.67;;
15454;SDS011;21057;51.024;7.540;2023-11-22T03:02:33;30.70;;;28.27;;
15454;SDS011;21057;51.024;7.540;2023-11-22T03:05:00;30.57;;;28.27;;
15454;SDS011;21057;51.024;7.540;2023-11-22T03:07:27;28.17;;;26.43;;
15454;SDS011;21057;51.024;7.540;2023-11-22T03:09:54;27.10;;;25.40;;
15454;SDS011;21057;51.024;7.540;2023-11-22T03:12:20;29.03;;;26.97;;
15454;SDS011;21057;51.024;7.540;2023-11-22T03:14:49;28.43;;;26.53;;
15454;SDS011;21057;51.024;7.540;2023-11-22T03:17:16;28.30;;;26.17;;
15454;SDS011;21057;51.024;7.540;2023-11-22T03:19:43;26.70;;;25.10;;
15454;SDS011;21057;51.024;7.540;2023-11-22T03:22:11;27.97;;;25.97;;
15454;SDS011;21057;51.024;7.540;2023-11-22T03:24:38;28.47;;;26.43;;
15454;SDS011;21057;51.024;7.540;2023-11-22T03:27:05;28.00;;;26.03;;
15454;SDS011;21057;51.024;7.540;2023-11-22T03:29:32;28.37;;;26.43;;
15454;SDS011;21057;51.024;7.540;2023-11-22T03:32:01;28.50;;;26.60;;
15454;SDS011;21057;51.024;7.540;2023-11-22T03:34:28;27.43;;;25.43;;
15454;SDS011;21057;51.024;7.540;2023-11-22T03:36:55;27.43;;;25.53;;
15454;SDS011;21057;51.024;7.540;2023-11-22T03:39:22;28.33;;;26.33;;
15454;SDS011;21057;51.024;7.540;2023-11-22T03:41:50;27.30;;;25.50;;
15454;SDS011;21057;51.024;7.540;2023-11-22T03:44:17;28.13;;;26.33;;
15454;SDS011;21057;51.024;7.540;2023-11-22T03:46:43;27.23;;;25.53;;
15454;SDS011;21057;51.024;7.540;2023-11-22T03:49:11;27.80;;;25.80;;
15454;SDS011;21057;51.024;7.540;2023-11-22T03:51:39;26.73;;;25.03;;
15454;SDS011;21057;51.024;7.540;2023-11-22T03:54:07;27.20;;;25.37;;
15454;SDS011;21057;51.024;7.540;2023-11-22T03:56:35;27.23;;;25.40;;
15454;SDS011;21057;51.024;7.540;2023-11-22T03:59:02;27.30;;;25.53;;
15454;SDS011;21057;51.024;7.540;2023-11-22T04:01:29;28.07;;;26.27;;
15454;SDS011;21057;51.024;7.540;2023-11-22T04:03:56;27.73;;;25.93;;
15454;SDS011;21057;51.024;7.540;2023-11-22T04:06:24;28.37;;;26.67;;
15454;SDS011;21057;51.024;7.540;2023-11-22T04:08:51;27.63;;;25.90;;
15454;SDS011;21057;51.024;7.540;2023-11-22T04:11:18;27.20;;;25.50;;
15454;SDS011;21057;51.024;7.540;2023-11-22T04:13:46;27.67;;;25.60;;
15454;SDS011;21057;51.024;7.540;2023-11-22T04:16:13;26.87;;;25.00;;
15454;SDS011;21057;51.024;7.540;2023-11-22T04:18:40;26.37;;;24.73;;
15454;SDS011;21057;51.024;7.540;2023-11-22T04:21:08;27.27;;;25.37;;
15454;SDS011;21057;51.024;7.540;2023-11-22T04:23:36;27.53;;;25.63;;
15454;SDS011;21057;51.024;7.540;2023-11-22T04:26:03;26.43;;;24.83;;
15454;SDS011;21057;51.024;7.540;2023-11-22T04:28:32;26.70;;;25.03;;
15454;SDS011;21057;51.024;7.540;2023-11-22T04:30:59;27.20;;;25.33;;
15454;SDS011;21057;51.024;7.540;2023-11-22T04:33:26;27.40;;;25.67;;
15454;SDS011;21057;51.024;7.540;2023-11-22T04:35:53;27.43;;;25.70;;
15454;SDS011;21057;51.024;7.540;2023-11-22T04:38:21;27.87;;;25.93;;
15454;SDS011;21057;51.024;7.540;2023-11-22T04:40:49;28.80;;;26.67;;
15454;SDS011;21057;51.024;7.540;2023-11-22T04:43:16;28.27;;;26.10;;
15454;SDS011;21057;51.024;7.540;2023-11-22T04:45:43;27.40;;;25.57;;
15454;SDS011;21057;51.024;7.540;2023-11-22T04:48:09;28.27;;;26.33;;
15454;SDS011;21057;51.024;7.540;2023-11-22T04:50:37;27.43;;;25.63;;
15454;SDS011;21057;51.024;7.540;2023-11-22T04:53:03;28.03;;;26.23;;
15454;SDS011;21057;51.024;7.540;2023-11-22T04:55:30;26.87;;;25.17;;
15454;SDS011;21057;51.024;7.540;2023-11-22T04:57:58;27.67;;;25.87;;
15454;SDS011;21057;51.024;7.540;2023-11-22T05:00:25;27.63;;;25.83;;
15454;SDS011;21057;51.024;7.540;2023-11-22T05:02:52;29.47;;;27.47;;
15454;SDS011;21057;51.024;7.540;2023-11-22T05:05:19;28.93;;;26.80;;
15454;SDS011;21057;51.024;7.540;2023-11-22T05:07:47;32.73;;;29.73;;
15454;SDS011;21057;51.024;7.540;2023-11-22T05:10:14;35.13;;;32.03;;
15454;SDS011;21057;51.024;7.540;2023-11-22T05:12:42;34.03;;;31.23;;
15454;SDS011;21057;51.024;7.540;2023-11-22T05:15:11;31.80;;;29.40;;
15454;SDS011;21057;51.024;7.540;2023-11-22T05:17:39;31.50;;;29.23;;
15454;SDS011;21057;51.024;7.540;2023-11-22T05:20:07;28.87;;;26.87;;
15454;SDS011;21057;51.024;7.540;2023-11-22T05:22:35;29.00;;;27.27;;
15454;SDS011;21057;51.024;7.540;2023-11-22T05:25:02;26.63;;;24.97;;
15454;SDS011;21057;51.024;7.540;2023-11-22T05:27:29;26.43;;;24.83;;
15454;SDS011;21057;51.024;7.540;2023-11-22T05:29:57;25.60;;;24.03;;
15454;SDS011;21057;51.024;7.540;2023-11-22T05:32:27;26.07;;;24.33;;
15454;SDS011;21057;51.024;7.540;2023-11-22T05:34:53;26.97;;;25.10;;
15454;SDS011;21057;51.024;7.540;2023-11-22T05:37:20;24.03;;;22.53;;
15454;SDS011;21057;51.024;7.540;2023-11-22T05:39:47;23.97;;;22.47;;
15454;SDS011;21057;51.024;7.540;2023-11-22T05:42:14;26.67;;;24.97;;
15454;SDS011;21057;51.024;7.540;2023-11-22T05:44:41;25.87;;;24.27;;
15454;SDS011;21057;51.024;7.540;2023-11-22T05:47:07;25.27;;;23.73;;
15454;SDS011;21057;51.024;7.540;2023-11-22T05:49:36;25.43;;;24.00;;
15454;SDS011;21057;51.024;7.540;2023-11-22T05:52:03;25.37;;;23.73;;
15454;SDS011;21057;51.024;7.540;2023-11-22T05:54:30;24.47;;;22.93;;
15454;SDS011;21057;51.024;7.540;2023-11-22T05:56:57;25.13;;;23.70;;
15454;SDS011;21057;51.024;7.540;2023-11-22T05:59:24;24.60;;;23.07;;
15454;SDS011;21057;51.024;7.540;2023-11-22T06:01:51;24.60;;;23.10;;
15454;SDS011;21057;51.024;7.540;2023-11-22T06:04:18;24.70;;;23.00;;
15454;SDS011;21057;51.024;7.540;2023-11-22T06:06:46;22.00;;;20.70;;
15454;SDS011;21057;51.024;7.540;2023-11-22T06:09:13;22.27;;;20.97;;
15454;SDS011;21057;51.024;7.540;2023-11-22T06:11:40;25.50;;;23.90;;
15454;SDS011;21057;51.024;7.540;2023-11-22T06:14:07;23.10;;;21.80;;
15454;SDS011;21057;51.024;7.540;2023-11-22T06:16:34;24.30;;;22.70;;
15454;SDS011;21057;51.024;7.540;2023-11-22T06:19:00;22.73;;;21.37;;
15454;SDS011;21057;51.024;7.540;2023-11-22T06:21:27;23.20;;;21.57;;
15454;SDS011;21057;51.024;7.540;2023-11-22T06:23:56;24.50;;;23.00;;
15454;SDS011;21057;51.024;7.540;2023-11-22T06:26:23;25.27;;;23.40;;
15454;SDS011;21057;51.024;7.540;2023-11-22T06:28:50;23.70;;;21.83;;
15454;SDS011;21057;51.024;7.540;2023-11-22T06:31:17;24.30;;;22.63;;
15454;SDS011;21057;51.024;7.540;2023-11-22T06:33:43;24.60;;;23.00;;
15454;SDS011;21057;51.024;7.540;2023-11-22T06:36:10;24.10;;;22.70;;
15454;SDS011;21057;51.024;7.540;2023-11-22T06:38:39;24.63;;;22.67;;
15454;SDS011;21057;51.024;7.540;2023-11-22T06:41:07;24.90;;;23.30;;
15454;SDS011;21057;51.024;7.540;2023-11-22T06:43:34;25.47;;;23.43;;
15454;SDS011;21057;51.024;7.540;2023-11-22T06:46:01;26.30;;;24.50;;
15454;SDS011;21057;51.024;7.540;2023-11-22T06:48:30;25.90;;;24.20;;
15454;SDS011;21057;51.024;7.540;2023-11-22T06:50:58;25.63;;;24.03;;
15454;SDS011;21057;51.024;7.540;2023-11-22T06:53:25;26.57;;;24.33;;
15454;SDS011;21057;51.024;7.540;2023-11-22T06:55:52;26.33;;;24.63;;
15454;SDS011;21057;51.024;7.540;2023-11-22T06:58:20;25.37;;;23.67;;
15454;SDS011;21057;51.024;7.540;2023-11-22T07:00:47;24.77;;;23.17;;
15454;SDS011;21057;51.024;7.540;2023-11-22T07:03:14;23.77;;;22.27;;
15454;SDS011;21057;51.024;7.540;2023-11-22T07:05:41;23.33;;;21.83;;
15454;SDS011;21057;51.024;7.540;2023-11-22T07:08:08;23.20;;;21.80;;
15454;SDS011;21057;51.024;7.540;2023-11-22T07:10:36;24.33;;;22.77;;
15454;SDS011;21057;51.024;7.540;2023-11-22T07:13:03;22.90;;;21.50;;
15454;SDS011;21057;51.024;7.540;2023-11-22T07:15:31;23.23;;;21.73;;
15454;SDS011;21057;51.024;7.540;2023-11-22T07:17:58;22.33;;;20.73;;
15454;SDS011;21057;51.024;7.540;2023-11-22T07:20:25;22.87;;;21.23;;
15454;SDS011;21057;51.024;7.540;2023-11-22T07:22:52;24.53;;;22.90;;
15454;SDS011;21057;51.024;7.540;2023-11-22T07:25:22;25.07;;;23.37;;
15454;SDS011;21057;51.024;7.540;2023-11-22T07:27:51;22.30;;;20.63;;
15454;SDS011;21057;51.024;7.540;2023-11-22T07:30:19;22.90;;;21.47;;
15454;SDS011;21057;51.024;7.540;2023-11-22T07:32:49;21.10;;;19.90;;
15454;SDS011;21057;51.024;7.540;2023-11-22T07:35:17;24.00;;;22.40;;
15454;SDS011;21057;51.024;7.540;2023-11-22T07:37:45;23.43;;;22.03;;
15454;SDS011;21057;51.024;7.540;2023-11-22T07:40:13;24.10;;;22.57;;
15454;SDS011;21057;51.024;7.540;2023-11-22T07:42:39;24.10;;;22.60;;
15454;SDS011;21057;51.024;7.540;2023-11-22T07:45:07;25.10;;;23.57;;
15454;SDS011;21057;51.024;7.540;2023-11-22T07:47:36;25.20;;;23.60;;
15454;SDS011;21057;51.024;7.540;2023-11-22T07:50:07;25.57;;;23.77;;
15454;SDS011;21057;51.024;7.540;2023-11-22T07:52:34;26.57;;;24.87;;
15454;SDS011;21057;51.024;7.540;2023-11-22T07:55:03;25.30;;;23.63;;
15454;SDS011;21057;51.024;7.540;2023-11-22T07:57:30;24.33;;;22.97;;
15454;SDS011;21057;51.024;7.540;2023-11-22T07:59:57;26.77;;;24.93;;
15454;SDS011;21057;51.024;7.540;2023-11-22T08:02:26;25.97;;;24.27;;
15454;SDS011;21057;51.024;7.540;2023-11-22T08:04:53;26.13;;;24.53;;
15454;SDS011;21057;51.024;7.540;2023-11-22T08:07:21;25.67;;;24.07;;
15454;SDS011;21057;51.024;7.540;2023-11-22T08:09:48;29.20;;;27.20;;
15454;SDS011;21057;51.024;7.540;2023-11-22T08:12:15;28.80;;;26.90;;
15454;SDS011;21057;51.024;7.540;2023-11-22T08:14:44;27.70;;;26.10;;
15454;SDS011;21057;51.024;7.540;2023-11-22T08:17:11;28.40;;;26.47;;
15454;SDS011;21057;51.024;7.540;2023-11-22T08:19:39;26.73;;;25.07;;
15454;SDS011;21057;51.024;7.540;2023-11-22T08:22:06;27.63;;;26.00;;
15454;SDS011;21057;51.024;7.540;2023-11-22T08:24:34;25.70;;;24.10;;
15454;SDS011;21057;51.024;7.540;2023-11-22T08:27:01;25.63;;;24.03;;
15454;SDS011;21057;51.024;7.540;2023-11-22T08:29:29;28.27;;;26.27;;
15454;SDS011;21057;51.024;7.540;2023-11-22T08:31:56;27.30;;;25.10;;
15454;SDS011;21057;51.024;7.540;2023-11-22T08:34:23;25.67;;;23.97;;
15454;SDS011;21057;51.024;7.540;2023-11-22T08:36:49;25.40;;;23.83;;
15454;SDS011;21057;51.024;7.540;2023-11-22T08:39:16;24.63;;;23.13;;
15454;SDS011;21057;51.024;7.540;2023-11-22T08:41:44;25.27;;;23.43;;
15454;SDS011;21057;51.024;7.540;2023-11-22T08:44:12;25.73;;;23.83;;
15454;SDS011;21057;51.024;7.540;2023-11-22T08:46:39;24.30;;;22.70;;
15454;SDS011;21057;51.024;7.540;2023-11-22T08:49:06;26.03;;;24.23;;
15454;SDS011;21057;51.024;7.540;2023-11-22T08:51:33;25.10;;;23.50;;
15454;SDS011;21057;51.024;7.540;2023-11-22T08:53:59;25.33;;;23.57;;
15454;SDS011;21057;51.024;7.540;2023-11-22T08:56:26;24.27;;;22.67;;
15454;SDS011;21057;51.024;7.540;2023-11-22T08:58:54;25.40;;;23.37;;
15454;SDS011;21057;51.024;7.540;2023-11-22T09:01:21;24.93;;;23.07;;
15454;SDS011;21057;51.024;7.540;2023-11-22T09:03:48;25.23;;;22.90;;
15454;SDS011;21057;51.024;7.540;2023-11-22T09:06:15;23.63;;;22.03;;
15454;SDS011;21057;51.024;7.540;2023-11-22T09:08:43;24.87;;;22.93;;
15454;SDS011;21057;51.024;7.540;2023-11-22T09:11:11;23.43;;;21.73;;
15454;SDS011;21057;51.024;7.540;2023-11-22T09:13:38;23.90;;;22.10;;
15454;SDS011;21057;51.024;7.540;2023-11-22T09:16:07;23.50;;;21.87;;
15454;SDS011;21057;51.024;7.540;2023-11-22T09:18:36;24.87;;;23.23;;
15454;SDS011;21057;51.024;7.540;2023-11-22T09:21:02;24.70;;;22.63;;
15454;SDS011;21057;51.024;7.540;2023-11-22T09:23:30;22.77;;;21.30;;
15454;SDS011;21057;51.024;7.540;2023-11-22T09:25:56;23.07;;;21.47;;
15454;SDS011;21057;51.024;7.540;2023-11-22T09:28:25;23.57;;;21.30;;
15454;SDS011;21057;51.024;7.540;2023-11-22T09:30:52;22.83;;;21.17;;
15454;SDS011;21057;51.024;7.540;2023-11-22T09:33:27;22.67;;;21.17;;
15454;SDS011;21057;51.024;7.540;2023-11-22T09:35:54;23.20;;;21.60;;
15454;SDS011;21057;51.024;7.540;2023-11-22T09:38:21;22.23;;;20.83;;
15454;SDS011;21057;51.024;7.540;2023-11-22T09:40:48;22.80;;;21.43;;
15454;SDS011;21057;51.024;7.540;2023-11-22T09:43:16;22.57;;;21.07;;
15454;SDS011;21057;51.024;7.540;2023-11-22T09:45:45;20.67;;;19.37;;
15454;SDS011;21057;51.024;7.540;2023-11-22T09:48:14;22.00;;;20.60;;
15454;SDS011;21057;51.024;7.540;2023-11-22T09:50:49;23.03;;;21.17;;
15454;SDS011;21057;51.024;7.540;2023-11-22T09:53:25;21.40;;;19.80;;
15454;SDS011;21057;51.024;7.540;2023-11-22T09:55:58;21.07;;;19.77;;
15454;SDS011;21057;51.024;7.540;2023-11-22T09:58:27;20.50;;;19.30;;
15454;SDS011;21057;51.024;7.540;2023-11-22T10:00:57;21.63;;;20.27;;
15454;SDS011;21057;51.024;7.540;2023-11-22T10:03:25;21.77;;;20.43;;
15454;SDS011;21057;51.024;7.540;2023-11-22T10:05:54;21.50;;;20.10;;
15454;SDS011;21057;51.024;7.540;2023-11-22T10:08:23;20.70;;;19.50;;
15454;SDS011;21057;51.024;7.540;2023-11-22T10:10:52;20.60;;;19.30;;
15454;SDS011;21057;51.024;7.540;2023-11-22T10:13:20;21.30;;;20.00;;
15454;SDS011;21057;51.024;7.540;2023-11-22T10:15:47;21.40;;;19.90;;
15454;SDS011;21057;51.024;7.540;2023-11-22T10:18:14;20.77;;;19.37;;
15454;SDS011;21057;51.024;7.540;2023-11-22T10:20:43;20.07;;;18.77;;
15454;SDS011;21057;51.024;7.540;2023-11-22T10:23:13;20.07;;;18.87;;
15454;SDS011;21057;51.024;7.540;2023-11-22T10:25:43;20.60;;;19.30;;
15454;SDS011;21057;51.024;7.540;2023-11-22T10:28:12;20.87;;;19.57;;
15454;SDS011;21057;51.024;7.540;2023-11-22T10:30:39;20.77;;;19.47;;
15454;SDS011;21057;51.024;7.540;2023-11-22T10:33:07;20.80;;;19.50;;
15454;SDS011;21057;51.024;7.540;2023-11-22T10:35:38;20.77;;;19.37;;
15454;SDS011;21057;51.024;7.540;2023-11-22T10:38:07;22.83;;;21.30;;
15454;SDS011;21057;51.024;7.540;2023-11-22T10:40:36;20.60;;;19.40;;
15454;SDS011;21057;51.024;7.540;2023-11-22T10:43:03;19.77;;;18.47;;
15454;SDS011;21057;51.024;7.540;2023-11-22T10:45:31;19.40;;;18.20;;
15454;SDS011;21057;51.024;7.540;2023-11-22T10:47:59;19.33;;;18.13;;
15454;SDS011;21057;51.024;7.540;2023-11-22T10:50:27;19.70;;;18.50;;
15454;SDS011;21057;51.024;7.540;2023-11-22T10:52:54;19.07;;;17.97;;
15454;SDS011;21057;51.024;7.540;2023-11-22T10:55:26;19.20;;;18.00;;
15454;SDS011;21057;51.024;7.540;2023-11-22T10:57:59;21.67;;;20.17;;
15454;SDS011;21057;51.024;7.540;2023-11-22T11:00:29;20.40;;;19.20;;
15454;SDS011;21057;51.024;7.540;2023-11-22T11:02:58;21.37;;;20.07;;
15454;SDS011;21057;51.024;7.540;2023-11-22T11:05:27;19.90;;;18.70;;
15454;SDS011;21057;51.024;7.540;2023-11-22T11:07:57;19.90;;;18.70;;
15454;SDS011;21057;51.024;7.540;2023-11-22T11:10:28;19.10;;;17.80;;
15454;SDS011;21057;51.024;7.540;2023-11-22T11:12:58;18.37;;;17.07;;
15454;SDS011;21057;51.024;7.540;2023-11-22T11:15:26;20.03;;;18.80;;
15454;SDS011;21057;51.024;7.540;2023-11-22T11:17:54;20.87;;;19.57;;
15454;SDS011;21057;51.024;7.540;2023-11-22T11:20:22;21.33;;;20.03;;
15454;SDS011;21057;51.024;7.540;2023-11-22T11:22:49;19.30;;;18.00;;
15454;SDS011;21057;51.024;7.540;2023-11-22T11:25:17;20.17;;;18.97;;
15454;SDS011;21057;51.024;7.540;2023-11-22T11:27:44;20.00;;;18.80;;
15454;SDS011;21057;51.024;7.540;2023-11-22T11:30:41;20.50;;;19.27;;
15454;SDS011;21057;51.024;7.540;2023-11-22T11:33:13;19.40;;;18.30;;
15454;SDS011;21057;51.024;7.540;2023-11-22T11:35:42;19.30;;;18.13;;
15454;SDS011;21057;51.024;7.540;2023-11-22T11:38:13;20.17;;;18.83;;
15454;SDS011;21057;51.024;7.540;2023-11-22T11:40:42;19.30;;;18.00;;
15454;SDS011;21057;51.024;7.540;2023-11-22T11:43:09;18.87;;;17.77;;
15454;SDS011;21057;51.024;7.540;2023-11-22T11:45:38;19.20;;;18.10;;
15454;SDS011;21057;51.024;7.540;2023-11-22T11:48:12;19.80;;;18.60;;
15454;SDS011;21057;51.024;7.540;2023-11-22T11:50:40;19.77;;;18.47;;
15454;SDS011;21057;51.024;7.540;2023-11-22T11:53:07;18.80;;;17.70;;
15454;SDS011;21057;51.024;7.540;2023-11-22T11:55:35;19.47;;;18.27;;
15454;SDS011;21057;51.024;7.540;2023-11-22T11:58:04;19.20;;;18.10;;
15454;SDS011;21057;51.024;7.540;2023-11-22T12:00:34;19.87;;;18.67;;
15454;SDS011;21057;51.024;7.540;2023-11-22T12:03:04;19.50;;;18.30;;
15454;SDS011;21057;51.024;7.540;2023-11-22T12:05:32;20.80;;;19.60;;
15454;SDS011;21057;51.024;7.540;2023-11-22T12:07:59;20.20;;;18.80;;
15454;SDS011;21057;51.024;7.540;2023-11-22T12:10:26;19.90;;;18.70;;
15454;SDS011;21057;51.024;7.540;2023-11-22T12:12:53;20.07;;;18.87;;
15454;SDS011;21057;51.024;7.540;2023-11-22T12:15:20;19.90;;;18.70;;
15454;SDS011;21057;51.024;7.540;2023-11-22T12:17:48;20.13;;;18.93;;
15454;SDS011;21057;51.024;7.540;2023-11-22T12:20:16;19.20;;;18.10;;
15454;SDS011;21057;51.024;7.540;2023-11-22T12:22:47;19.77;;;18.57;;
15454;SDS011;21057;51.024;7.540;2023-11-22T12:25:14;19.63;;;18.43;;
15454;SDS011;21057;51.024;7.540;2023-11-22T12:27:41;19.70;;;18.50;;
15454;SDS011;21057;51.024;7.540;2023-11-22T12:30:09;20.60;;;19.20;;
15454;SDS011;21057;51.024;7.540;2023-11-22T12:32:53;20.07;;;18.87;;
15454;SDS011;21057;51.024;7.540;2023-11-22T12:35:21;20.43;;;19.20;;
15454;SDS011;21057;51.024;7.540;2023-11-22T12:37:49;20.30;;;19.00;;
15454;SDS011;21057;51.024;7.540;2023-11-22T12:40:17;19.80;;;18.60;;
15454;SDS011;21057;51.024;7.540;2023-11-22T12:42:47;20.10;;;18.70;;
15454;SDS011;21057;51.024;7.540;2023-11-22T12:45:21;19.60;;;18.40;;
15454;SDS011;21057;51.024;7.540;2023-11-22T12:47:49;19.83;;;18.63;;
15454;SDS011;21057;51.024;7.540;2023-11-22T12:50:34;20.30;;;19.10;;
15454;SDS011;21057;51.024;7.540;2023-11-22T12:53:08;20.03;;;18.83;;
15454;SDS011;21057;51.024;7.540;2023-11-22T12:55:37;18.60;;;17.50;;
15454;SDS011;21057;51.024;7.540;2023-11-22T12:58:05;19.37;;;18.07;;
15454;SDS011;21057;51.024;7.540;2023-11-22T13:00:32;20.10;;;18.80;;
15454;SDS011;21057;51.024;7.540;2023-11-22T13:02:59;21.67;;;20.03;;
15454;SDS011;21057;51.024;7.540;2023-11-22T13:05:26;20.40;;;19.00;;
15454;SDS011;21057;51.024;7.540;2023-11-22T13:07:53;20.80;;;19.50;;
15454;SDS011;21057;51.024;7.540;2023-11-22T13:10:21;20.07;;;18.77;;
15454;SDS011;21057;51.024;7.540;2023-11-22T13:12:51;20.07;;;18.77;;
15454;SDS011;21057;51.024;7.540;2023-11-22T13:15:19;21.30;;;19.90;;
15454;SDS011;21057;51.024;7.540;2023-11-22T13:17:48;21.67;;;20.17;;
15454;SDS011;21057;51.024;7.540;2023-11-22T13:20:16;21.50;;;20.10;;
15454;SDS011;21057;51.024;7.540;2023-11-22T13:22:45;21.10;;;19.70;;
15454;SDS011;21057;51.024;7.540;2023-11-22T13:25:13;20.30;;;18.90;;
15454;SDS011;21057;51.024;7.540;2023-11-22T13:27:41;21.13;;;19.73;;
15454;SDS011;21057;51.024;7.540;2023-11-22T13:30:08;19.93;;;18.63;;
15454;SDS011;21057;51.024;7.540;2023-11-22T13:32:35;19.70;;;18.50;;
15454;SDS011;21057;51.024;7.540;2023-11-22T13:35:02;19.70;;;18.50;;
15454;SDS011;21057;51.024;7.540;2023-11-22T13:37:35;19.93;;;18.63;;
15454;SDS011;21057;51.024;7.540;2023-11-22T13:40:02;20.30;;;18.97;;
15454;SDS011;21057;51.024;7.540;2023-11-22T13:42:36;19.80;;;18.60;;
15454;SDS011;21057;51.024;7.540;2023-11-22T13:45:05;20.60;;;19.27;;
15454;SDS011;21057;51.024;7.540;2023-11-22T13:47:33;19.90;;;18.70;;
15454;SDS011;21057;51.024;7.540;2023-11-22T13:49:59;19.80;;;18.60;;
15454;SDS011;21057;51.024;7.540;2023-11-22T13:52:28;21.93;;;20.43;;
15454;SDS011;21057;51.024;7.540;2023-11-22T13:54:55;21.03;;;19.37;;
15454;SDS011;21057;51.024;7.540;2023-11-22T13:57:22;21.37;;;19.87;;
15454;SDS011;21057;51.024;7.540;2023-11-22T13:59:49;21.47;;;19.80;;
15454;SDS011;21057;51.024;7.540;2023-11-22T14:02:17;21.13;;;19.47;;
15454;SDS011;21057;51.024;7.540;2023-11-22T14:04:44;20.80;;;19.50;;
15454;SDS011;21057;51.024;7.540;2023-11-22T14:07:11;21.00;;;19.60;;
15454;SDS011;21057;51.024;7.540;2023-11-22T14:09:38;20.13;;;18.83;;
15454;SDS011;21057;51.024;7.540;2023-11-22T14:12:05;20.13;;;18.83;;
15454;SDS011;21057;51.024;7.540;2023-11-22T14:14:32;20.20;;;18.87;;
15454;SDS011;21057;51.024;7.540;2023-11-22T14:16:59;19.63;;;18.23;;
15454;SDS011;21057;51.024;7.540;2023-11-22T14:19:27;20.80;;;19.33;;
15454;SDS011;21057;51.024;7.540;2023-11-22T14:21:54;20.23;;;18.93;;
15454;SDS011;21057;51.024;7.540;2023-11-22T14:24:21;19.77;;;18.47;;